CAL6 weather

Prince Albert (Fire Centre) Heliport
Prince Albert, Saskatchewan, Canada

Public forecast

Using degrees Celsius for public forecast. Weather courtesy of forecast.io.

Closest aviation weather report (METAR) to Prince Albert (Fire Centre) Heliport

Closest report is Prince Albert Glass Field, 3.1 nm (5.7 km) ESE. Retrieved 2020/06/05 02:00 UTC (55 minutes ago):

CYPA 050200Z 14006KT 15SM -SHRA BKN030 BKN055 12/09 A2984 RMK SC6SC2 CVCTV CLD EMBD SLP118 DENSITY ALT 1500FT

Closest aviation forecast (TAF) to Prince Albert (Fire Centre) Heliport

Closest forecast is Prince Albert Glass Field, 3.1 nm (5.7 km) ESE. Retrieved 2020-06-05 01:00 UTC (2 hours ago):

TAF CYPA 050043Z 0501/0504 13004KT P6SM -SHRA SCT050 BKN080 RMK NXT FCST WILL BE ISSUED AT 051345Z